| time (UTC) | temp C | wind direction | speed KPH | gust KPH | rain 1hr cm | rain 24hr cm | rain mn cm | humidity % | barometer mb |
| 20260507154533 | 15 | 210 | 17.7 | 40.2 | 0.05 | 0.13 | 0.13 | 77 | 1008.6 |
| 20260507152733 | 15 | 240 | 14.5 | 32.2 | 0.03 | 0.10 | 0.10 | 78 | 1009.4 |
| 20260507151833 | 16 | 270 | 12.9 | 32.2 | 0.00 | 0.05 | 0.05 | 69 | 1010.5 |
| 20260507150034 | 16 | 228 | 17.7 | 46.7 | 0.00 | 0.05 | 0.05 | 66 | 1010.3 |
| 20260507145133 | 16 | 215 | 24.1 | 62.8 | 0.00 | 0.05 | 0.05 | 64 | 1009.1 |
| 20260507144236 | 16 | 208 | 40.2 | 66.0 | 0.00 | 0.05 | 0.05 | 64 | 1008.1 |
| 20260507143333 | 16 | 213 | 29.0 | 57.9 | 0.00 | 0.05 | 0.05 | 67 | 1007.4 |
| 20260507142434 | 16 | 230 | 29.0 | 51.5 | 0.00 | 0.05 | 0.05 | 69 | 1007.3 |
| 20260507140634 | 16 | 217 | 17.7 | 54.7 | 0.00 | 0.05 | 0.05 | 66 | 1007.5 |
| 20260507135733 | 16 | 218 | 29.0 | 54.7 | 0.00 | 0.05 | 0.05 | 64 | 1008.3 |
| 20260507134833 | 16 | 219 | 19.3 | 46.7 | 0.00 | 0.05 | 0.05 | 65 | 1008.0 |
| 20260507133933 | 17 | 232 | 16.1 | 48.3 | 0.00 | 0.05 | 0.05 | 70 | 1009.6 |
| 20260507133033 | 17 | 229 | 20.9 | 43.5 | 0.00 | 0.05 | 0.05 | 68 | 1007.2 |
| 20260507132133 | 18 | 202 | 24.1 | 33.8 | 0.00 | 0.05 | 0.05 | 70 | 1006.1 |
| 20260507131233 | 18 | 208 | 24.1 | 54.7 | 0.00 | 0.05 | 0.05 | 65 | 1005.8 |
| 20260507130335 | 18 | 200 | 30.6 | 54.7 | 0.00 | 0.05 | 0.05 | 71 | 1006.2 |
| 20260507124534 | 18 | 201 | 12.9 | 33.8 | 0.00 | 0.05 | 0.05 | 78 | 1006.4 |
| 20260507123633 | 18 | 219 | 19.3 | 33.8 | 0.00 | 0.05 | 0.05 | 82 | 1006.1 |
| 20260507122733 | 18 | 216 | 17.7 | 29.0 | 0.00 | 0.05 | 0.05 | 87 | 1005.4 |
| 20260507120933 | 18 | 179 | 17.7 | 33.8 | 0.00 | 0.05 | 0.05 | 86 | 1005.7 |
| 20260507120035 | 18 | 201 | 20.9 | 43.5 | 0.00 | 0.05 | 0.05 | 86 | 1005.8 |
| 20260507115133 | 18 | 199 | 17.7 | 33.8 | 0.00 | 0.05 | 0.05 | 87 | 1005.5 |
| 20260507114233 | 18 | 184 | 11.3 | 29.0 | 0.00 | 0.05 | 0.05 | 87 | 1005.2 |
| 20260507112433 | 18 | 190 | 24.1 | 38.6 | 0.00 | 0.05 | 0.05 | 86 | 1004.7 |
| 20260507111533 | 18 | 190 | 20.9 | 33.8 | 0.00 | 0.05 | 0.05 | 87 | 1004.2 |
| 20260507110634 | 18 | 203 | 12.9 | 35.4 | 0.00 | 0.05 | 0.05 | 88 | 1003.9 |
| 20260507105733 | 18 | 213 | 14.5 | 35.4 | 0.00 | 0.05 | 0.05 | 90 | 1003.5 |
| 20260507104833 | 18 | 208 | 16.1 | 27.4 | 0.00 | 0.05 | 0.05 | 89 | 1003.7 |
| 20260507103933 | 18 | 209 | 9.7 | 25.7 | 0.00 | 0.05 | 0.05 | 90 | 1003.6 |
| 20260507102133 | 18 | 201 | 12.9 | 24.1 | 0.00 | 0.05 | 0.05 | 91 | 1003.4 |
| 20260507100333 | 18 | 206 | 16.1 | 32.2 | 0.03 | 0.05 | 0.05 | 91 | 1002.8 |
| 20260507095142 | 19 | 205 | 16.1 | 27.4 | 0.03 | 0.05 | 0.05 | 92 | 1002.8 |